createdAt,value
2019-02-10T00:00:36.066Z,44.03
2019-02-10T00:03:06.378Z,44.30
2019-02-10T00:05:37.025Z,47.27
2019-02-10T00:08:07.626Z,42.97
2019-02-10T00:10:38.391Z,42.97
2019-02-10T00:13:32.014Z,44.63
2019-02-10T00:16:04.519Z,43.37
2019-02-10T00:18:35.219Z,43.33
2019-02-10T00:21:05.713Z,45.43
2019-02-10T00:23:36.385Z,42.90
2019-02-10T00:26:07.168Z,42.97
2019-02-10T00:28:37.698Z,44.73
2019-02-10T00:31:08.080Z,45.77
2019-02-10T00:33:38.797Z,44.90
2019-02-10T00:36:09.374Z,46.87
2019-02-10T00:38:39.698Z,44.23
2019-02-10T00:41:10.142Z,47.83
2019-02-10T00:43:40.461Z,59.03
2019-02-10T00:46:11.131Z,51.70
2019-02-10T00:48:41.808Z,47.57
2019-02-10T00:51:12.088Z,46.90
2019-02-10T00:53:42.628Z,47.60
2019-02-10T00:56:13.313Z,43.93
2019-02-10T00:58:43.772Z,41.97
2019-02-10T01:01:14.377Z,41.70
2019-02-10T01:03:45.057Z,43.77
2019-02-10T01:06:15.327Z,41.67
2019-02-10T01:08:45.911Z,43.37
2019-02-10T01:11:16.291Z,41.57
2019-02-10T01:13:46.610Z,41.20
2019-02-10T01:16:17.004Z,42.57
2019-02-10T01:19:08.300Z,41.67
2019-02-10T01:21:40.098Z,40.40
2019-02-10T01:24:10.438Z,40.13
2019-02-10T01:26:41.177Z,41.73
2019-02-10T01:29:11.813Z,40.87
2019-02-10T01:31:42.108Z,41.97
2019-02-10T01:34:12.919Z,38.20
2019-02-10T01:36:49.520Z,39.70
2019-02-10T01:39:19.146Z,40.70
2019-02-10T01:41:49.507Z,37.40
2019-02-10T01:44:20.429Z,38.70
2019-02-10T01:46:50.730Z,39.13
2019-02-10T01:49:21.616Z,39.07
2019-02-10T01:51:51.986Z,38.90
2019-02-10T01:54:22.779Z,36.93
2019-02-10T01:56:53.370Z,38.80
2019-02-10T01:59:25.617Z,40.73
2019-02-10T02:01:56.336Z,39.27
2019-02-10T02:04:27.076Z,42.07
2019-02-10T02:06:58.127Z,43.73
2019-02-10T02:09:28.511Z,40.37
2019-02-10T02:11:58.909Z,41.80
2019-02-10T02:14:29.300Z,40.40
2019-02-10T02:16:59.619Z,41.50
2019-02-10T02:19:30.187Z,38.77
2019-02-10T02:22:00.882Z,41.70
2019-02-10T02:24:31.493Z,41.80
2019-02-10T02:27:02.024Z,41.77
2019-02-10T02:29:32.444Z,41.83
2019-02-10T02:32:02.965Z,41.73
2019-02-10T02:34:33.235Z,41.37
2019-02-10T02:37:07.949Z,40.13
2019-02-10T02:39:35.632Z,45.03
2019-02-10T02:42:05.942Z,39.67
2019-02-10T02:44:36.251Z,42.63
2019-02-10T02:47:06.423Z,41.60
2019-02-10T02:49:36.839Z,41.90
2019-02-10T02:52:07.607Z,42.80
2019-02-10T02:54:38.012Z,40.87
2019-02-10T02:57:08.333Z,44.80
2019-02-10T02:59:39.021Z,48.70
2019-02-10T03:02:09.341Z,50.77
2019-02-10T03:04:39.719Z,48.37
2019-02-10T03:07:17.687Z,46.00
2019-02-10T03:09:42.422Z,46.93
2019-02-10T03:12:12.751Z,53.57
2019-02-10T03:14:43.390Z,46.53
2019-02-10T03:17:14.065Z,45.90
2019-02-10T03:19:44.340Z,44.80
2019-02-10T03:22:15.036Z,43.17
2019-02-10T03:24:45.353Z,42.93
2019-02-10T03:27:15.951Z,44.20
2019-02-10T03:29:46.454Z,43.43
2019-02-10T03:32:16.782Z,43.20
2019-02-10T03:34:47.427Z,43.57
2019-02-10T03:37:26.643Z,44.23
2019-02-10T03:39:49.816Z,46.93
2019-02-10T03:42:20.589Z,44.13
2019-02-10T03:44:51.388Z,44.97
2019-02-10T03:47:22.270Z,47.03
2019-02-10T03:49:52.764Z,45.53
2019-02-10T03:52:23.394Z,44.63
2019-02-10T03:54:53.798Z,48.03
2019-02-10T03:57:24.541Z,48.47
2019-02-10T03:59:54.867Z,47.47
2019-02-10T04:02:25.643Z,45.97
2019-02-10T04:04:56.092Z,48.07
2019-02-10T04:07:26.356Z,45.73
2019-02-10T04:09:56.754Z,50.67
2019-02-10T04:12:27.530Z,50.23
2019-02-10T04:14:57.853Z,51.23
2019-02-10T04:17:28.159Z,49.20
2019-02-10T04:19:58.858Z,47.77
2019-02-10T04:22:29.122Z,46.77
2019-02-10T04:24:59.446Z,47.93
2019-02-10T04:27:30.096Z,46.57
2019-02-10T04:30:00.654Z,47.23
2019-02-10T04:32:31.292Z,45.23
2019-02-10T04:35:01.630Z,48.40
2019-02-10T04:37:31.904Z,46.97
2019-02-10T04:40:02.273Z,49.47
2019-02-10T04:42:32.605Z,47.23
2019-02-10T04:45:02.915Z,53.87
2019-02-10T04:47:33.516Z,51.80
2019-02-10T04:50:04.298Z,51.90
2019-02-10T04:52:34.688Z,51.07
2019-02-10T04:55:05.523Z,54.40
2019-02-10T04:57:36.180Z,49.60
2019-02-10T05:00:07.617Z,53.50
2019-02-10T05:02:38.115Z,63.13
2019-02-10T05:05:08.557Z,55.57
2019-02-10T05:07:39.221Z,50.03
2019-02-10T05:10:09.581Z,54.60
2019-02-10T05:12:39.933Z,54.00
2019-02-10T05:15:10.669Z,54.87
2019-02-10T05:17:41.312Z,50.50
2019-02-10T05:20:11.678Z,48.10
2019-02-10T05:22:42.268Z,50.03
2019-02-10T05:25:13.014Z,48.67
2019-02-10T05:27:43.287Z,47.20
2019-02-10T05:30:13.712Z,48.77
2019-02-10T05:32:44.373Z,50.47
2019-02-10T05:35:14.736Z,48.33
2019-02-10T05:37:45.045Z,47.77
2019-02-10T05:40:15.701Z,47.70
2019-02-10T05:42:46.132Z,50.50
2019-02-10T05:45:16.506Z,49.73
2019-02-10T05:47:47.031Z,49.33
2019-02-10T05:50:17.544Z,46.83
2019-02-10T05:52:47.840Z,71.13
2019-02-10T05:55:18.508Z,48.53
2019-02-10T05:57:49.323Z,52.40
2019-02-10T06:00:19.698Z,50.17
2019-02-10T06:02:50.133Z,50.97
2019-02-10T06:05:22.781Z,51.63
2019-02-10T06:07:53.592Z,52.73
2019-02-10T06:10:24.175Z,55.13
2019-02-10T06:12:54.497Z,49.10
2019-02-10T06:15:25.381Z,54.30
2019-02-10T06:17:56.115Z,54.30
2019-02-10T06:20:26.424Z,53.70
2019-02-10T06:22:57.059Z,53.50
2019-02-10T06:25:27.715Z,63.37
2019-02-10T06:27:58.002Z,63.50
2019-02-10T06:30:28.560Z,59.83
2019-02-10T06:33:00.113Z,56.53
2019-02-10T06:35:30.424Z,58.50
2019-02-10T06:38:00.953Z,52.90
2019-02-10T06:40:31.395Z,53.30
2019-02-10T06:43:02.277Z,54.37
2019-02-10T06:45:32.853Z,53.17
2019-02-10T06:48:03.239Z,52.27
2019-02-10T06:50:33.794Z,55.43
2019-02-10T06:53:04.546Z,53.70
2019-02-10T06:55:34.933Z,54.23
2019-02-10T06:58:05.479Z,54.17
2019-02-10T07:01:00.988Z,56.63
2019-02-10T07:03:52.427Z,49.83
2019-02-10T07:06:24.925Z,55.60
2019-02-10T07:08:55.401Z,49.47
2019-02-10T07:11:26.160Z,62.30
2019-02-10T07:13:59.103Z,60.87
2019-02-10T07:16:50.177Z,53.77
2019-02-10T07:20:12.777Z,48.60
2019-02-10T07:23:21.393Z,47.93
2019-02-10T07:25:53.815Z,41.87
2019-02-10T07:29:09.478Z,40.47
2019-02-10T07:32:07.880Z,36.97
2019-02-10T07:35:19.949Z,39.93
2019-02-10T07:38:20.858Z,39.90
2019-02-10T07:41:07.899Z,36.80
2019-02-10T07:44:46.480Z,36.83
2019-02-10T07:47:51.788Z,34.57
2019-02-10T07:50:44.816Z,33.67
2019-02-10T07:53:41.398Z,32.50
2019-02-10T07:56:58.050Z,31.37
2019-02-10T07:59:44.531Z,30.67
2019-02-10T08:03:06.440Z,29.30
2019-02-10T08:05:59.850Z,28.90
2019-02-10T08:09:16.341Z,30.03
2019-02-10T08:11:57.839Z,25.90
2019-02-10T08:15:24.478Z,26.00
2019-02-10T08:18:23.231Z,25.73
2019-02-10T08:21:34.501Z,24.40
2019-02-10T08:24:37.287Z,24.07
2019-02-10T08:27:25.880Z,26.23
2019-02-10T08:30:35.670Z,26.17
2019-02-10T08:33:44.755Z,25.13
2019-02-10T08:36:50.999Z,26.37
2019-02-10T08:40:02.967Z,25.23
2019-02-10T08:43:35.618Z,26.80
2019-02-10T08:46:24.711Z,26.53
2019-02-10T08:49:20.313Z,28.40
2019-02-10T08:52:15.245Z,28.27
2019-02-10T08:54:45.633Z,28.83
2019-02-10T08:57:16.103Z,29.73
2019-02-10T08:59:46.696Z,33.97
2019-02-10T09:02:17.203Z,34.63
2019-02-10T09:04:47.877Z,39.73
2019-02-10T09:07:18.384Z,43.23
2019-02-10T09:09:48.825Z,41.27
2019-02-10T09:12:19.494Z,42.17
2019-02-10T09:14:49.803Z,41.87
2019-02-10T09:17:20.509Z,43.87
2019-02-10T09:19:51.148Z,43.20
2019-02-10T09:22:21.455Z,50.27
2019-02-10T09:24:52.275Z,54.60
2019-02-10T09:27:23.022Z,56.60
2019-02-10T09:29:53.285Z,55.57
2019-02-10T09:32:23.979Z,50.87
2019-02-10T09:34:54.619Z,56.50
2019-02-10T09:37:25.316Z,56.80
2019-02-10T09:39:56.021Z,60.60
2019-02-10T09:42:26.615Z,58.37
2019-02-10T09:44:56.928Z,57.80
2019-02-10T09:47:27.644Z,52.50
2019-02-10T09:49:57.936Z,46.20
2019-02-10T09:52:28.265Z,40.33
2019-02-10T09:54:58.787Z,44.03
2019-02-10T09:57:29.441Z,37.17
2019-02-10T10:00:00.025Z,41.77
2019-02-10T10:02:30.810Z,33.67
2019-02-10T10:05:01.409Z,33.50
2019-02-10T10:07:31.829Z,32.70
2019-02-10T10:10:02.571Z,29.67
2019-02-10T10:12:33.342Z,28.97
2019-02-10T10:15:03.732Z,31.33
2019-02-10T10:17:34.187Z,30.87
2019-02-10T10:20:05.322Z,17.00
2019-02-10T10:22:35.810Z,5.67
2019-02-10T10:25:07.331Z,6.87
2019-02-10T10:27:37.760Z,3.70
2019-02-10T10:30:10.521Z,4.17
2019-02-10T10:32:40.945Z,3.50
2019-02-10T10:35:11.754Z,3.23
2019-02-10T10:37:42.266Z,3.87
2019-02-10T10:40:13.329Z,3.63
2019-02-10T10:42:43.634Z,3.10
2019-02-10T10:45:13.961Z,3.40
2019-02-10T10:47:44.808Z,3.70
2019-02-10T10:50:15.438Z,4.10
2019-02-10T10:52:46.041Z,3.37
2019-02-10T10:55:16.518Z,3.80
2019-02-10T10:57:46.870Z,3.03
2019-02-10T11:00:17.268Z,3.20
2019-02-10T11:02:48.287Z,3.53
2019-02-10T11:05:18.939Z,3.20
2019-02-10T11:07:49.241Z,4.07
2019-02-10T11:10:19.795Z,4.20
2019-02-10T11:12:51.068Z,3.87
2019-02-10T11:15:21.775Z,4.20
2019-02-10T11:17:52.315Z,4.30
2019-02-10T11:20:22.714Z,3.17
2019-02-10T11:22:53.515Z,4.50
2019-02-10T11:25:24.204Z,4.60
2019-02-10T11:27:54.510Z,3.20
2019-02-10T11:30:25.196Z,4.13
2019-02-10T11:32:56.168Z,5.20
2019-02-10T11:35:26.452Z,3.20
2019-02-10T11:37:56.926Z,3.80
2019-02-10T11:40:27.595Z,4.03
2019-02-10T11:42:57.904Z,4.33
2019-02-10T11:45:28.578Z,3.53
2019-02-10T11:47:58.887Z,4.17
2019-02-10T11:50:29.490Z,3.57
2019-02-10T11:52:59.910Z,3.83
2019-02-10T11:55:30.274Z,4.57
2019-02-10T11:58:01.752Z,3.60
2019-02-10T12:00:32.556Z,3.77
2019-02-10T12:03:02.896Z,3.53
2019-02-10T12:05:33.187Z,3.87
2019-02-10T12:08:03.873Z,3.83
2019-02-10T12:10:34.130Z,4.33
2019-02-10T12:13:04.588Z,3.70
2019-02-10T12:15:35.289Z,4.77
2019-02-10T12:18:05.930Z,5.63
2019-02-10T12:20:36.472Z,5.03
2019-02-10T12:23:06.855Z,4.50
2019-02-10T12:25:37.153Z,4.63
2019-02-10T12:28:07.754Z,3.50
2019-02-10T12:30:38.029Z,4.47
2019-02-10T12:33:08.469Z,6.07
2019-02-10T12:35:39.160Z,3.10
2019-02-10T12:38:09.652Z,3.73
2019-02-10T12:40:39.937Z,3.47
2019-02-10T12:43:10.666Z,5.37
2019-02-10T12:45:41.360Z,4.77
2019-02-10T12:48:11.689Z,4.23
2019-02-10T12:50:42.221Z,4.73
2019-02-10T12:53:12.530Z,4.30
2019-02-10T12:55:42.934Z,4.70
2019-02-10T12:58:13.278Z,3.97
2019-02-10T13:00:43.605Z,4.93
2019-02-10T13:03:14.153Z,4.80
2019-02-10T13:05:44.612Z,4.50
2019-02-10T13:08:14.884Z,4.43
2019-02-10T13:10:45.633Z,4.77
2019-02-10T13:13:19.298Z,5.07
2019-02-10T13:15:48.422Z,5.10
2019-02-10T13:18:19.010Z,5.10
2019-02-10T13:20:49.393Z,4.90
2019-02-10T13:23:20.063Z,4.80
2019-02-10T13:25:50.689Z,5.23
2019-02-10T13:28:20.997Z,5.70
2019-02-10T13:30:51.725Z,5.87
2019-02-10T13:33:23.665Z,5.17
2019-02-10T13:35:53.974Z,5.97
2019-02-10T13:38:24.467Z,6.03
2019-02-10T13:40:55.127Z,5.13
2019-02-10T13:43:33.217Z,5.37
2019-02-10T13:45:57.535Z,5.30
2019-02-10T13:48:28.267Z,6.23
2019-02-10T13:50:58.591Z,6.00
2019-02-10T13:53:29.293Z,6.50
2019-02-10T13:55:59.565Z,6.47
2019-02-10T13:58:30.180Z,7.43
2019-02-10T14:01:00.846Z,6.73
2019-02-10T14:03:31.169Z,6.63
2019-02-10T14:06:01.478Z,8.47
2019-02-10T14:08:32.494Z,6.40
2019-02-10T14:11:02.780Z,5.67
2019-02-10T14:13:33.483Z,6.77
2019-02-10T14:16:04.137Z,5.77
2019-02-10T14:18:34.505Z,7.17
2019-02-10T14:21:04.799Z,6.80
2019-02-10T14:23:35.236Z,8.77
2019-02-10T14:26:06.843Z,7.10
2019-02-10T14:28:37.367Z,7.83
2019-02-10T14:31:08.139Z,6.90
2019-02-10T14:33:39.246Z,7.47
2019-02-10T14:36:09.639Z,7.60
2019-02-10T14:38:40.214Z,6.77
2019-02-10T14:41:10.764Z,7.40
2019-02-10T14:43:41.210Z,5.93
2019-02-10T14:46:11.515Z,15.03
2019-02-10T14:48:42.287Z,8.13
2019-02-10T14:51:12.585Z,9.67
2019-02-10T14:53:42.972Z,8.97
2019-02-10T14:56:13.651Z,11.37
2019-02-10T14:58:44.170Z,9.63
2019-02-10T15:01:14.798Z,11.53
2019-02-10T15:03:45.442Z,9.00
2019-02-10T15:06:18.652Z,11.50
2019-02-10T15:08:49.087Z,11.10
2019-02-10T15:11:19.466Z,14.30
2019-02-10T15:13:49.804Z,19.00
2019-02-10T15:16:20.324Z,9.80
2019-02-10T15:18:51.818Z,11.80
2019-02-10T15:21:22.112Z,11.03
2019-02-10T15:23:52.780Z,9.50
2019-02-10T15:26:23.375Z,11.10
2019-02-10T15:28:53.838Z,11.23
2019-02-10T15:31:24.183Z,14.50
2019-02-10T15:33:54.684Z,13.93
2019-02-10T15:36:25.520Z,13.57
2019-02-10T15:38:56.207Z,19.07
2019-02-10T15:41:26.534Z,17.27
2019-02-10T15:43:57.273Z,13.43
2019-02-10T15:46:27.734Z,12.70
2019-02-10T15:48:58.286Z,12.67
2019-02-10T15:51:36.973Z,14.40
2019-02-10T15:54:01.500Z,25.87
2019-02-10T15:56:31.948Z,22.27
2019-02-10T15:59:02.479Z,25.73
2019-02-10T16:01:32.864Z,24.40
2019-02-10T16:04:03.742Z,29.57
2019-02-10T16:06:34.507Z,25.03
2019-02-10T16:09:05.662Z,24.03
2019-02-10T16:11:36.504Z,21.87
2019-02-10T16:14:07.086Z,24.80
2019-02-10T16:16:37.372Z,26.57
2019-02-10T16:19:07.762Z,25.20
2019-02-10T16:21:38.711Z,25.50
2019-02-10T16:24:09.168Z,34.40
2019-02-10T16:26:39.453Z,29.27
2019-02-10T16:29:10.168Z,26.93
2019-02-10T16:31:40.467Z,24.87
2019-02-10T16:34:11.508Z,31.27
2019-02-10T16:36:41.881Z,29.27
2019-02-10T16:39:13.005Z,27.47
2019-02-10T16:41:45.845Z,25.50
2019-02-10T16:44:16.124Z,24.43
2019-02-10T16:46:46.451Z,25.60
2019-02-10T16:49:17.325Z,30.47
2019-02-10T16:51:47.815Z,32.33
2019-02-10T16:54:18.259Z,31.93
2019-02-10T16:56:48.640Z,32.83
2019-02-10T16:59:19.222Z,32.83
2019-02-10T17:01:49.555Z,35.07
2019-02-10T17:04:20.238Z,35.37
2019-02-10T17:06:50.571Z,31.87
2019-02-10T17:09:21.214Z,31.23
2019-02-10T17:11:51.527Z,29.63
2019-02-10T17:14:21.852Z,30.03
2019-02-10T17:16:52.292Z,32.00
2019-02-10T17:19:22.939Z,31.60
2019-02-10T17:21:53.202Z,32.17
2019-02-10T17:24:23.979Z,33.27
2019-02-10T17:26:54.790Z,32.90
2019-02-10T17:29:25.088Z,31.57
2019-02-10T17:31:55.745Z,32.90
2019-02-10T17:34:26.377Z,33.07
2019-02-10T17:36:56.662Z,31.30
2019-02-10T17:39:27.103Z,32.23
2019-02-10T17:41:57.487Z,32.77
2019-02-10T17:44:28.104Z,35.87
2019-02-10T17:46:58.488Z,37.70
2019-02-10T17:49:29.001Z,40.87
2019-02-10T17:51:59.442Z,40.50
2019-02-10T17:54:30.223Z,39.70
2019-02-10T17:57:00.533Z,34.87
2019-02-10T17:59:32.241Z,35.27
2019-02-10T18:02:02.793Z,31.57
2019-02-10T18:04:37.520Z,34.03
2019-02-10T18:07:05.181Z,37.60
2019-02-10T18:09:35.978Z,33.93
2019-02-10T18:12:06.412Z,33.83
2019-02-10T18:14:54.392Z,30.57
2019-02-10T18:17:36.112Z,31.37
2019-02-10T18:20:25.788Z,29.57
2019-02-10T18:23:18.503Z,44.83
2019-02-10T18:25:56.001Z,43.17
2019-02-10T18:28:44.193Z,46.83
2019-02-10T18:31:34.111Z,70.97
2019-02-10T18:34:23.354Z,74.17
2019-02-10T18:37:15.724Z,65.90
2019-02-10T18:40:05.306Z,88.23
2019-02-10T18:42:51.720Z,75.90
2019-02-10T18:45:41.057Z,86.00
2019-02-10T18:48:28.034Z,78.83
2019-02-10T18:51:07.178Z,70.03
2019-02-10T18:53:51.986Z,80.67
2019-02-10T18:56:50.043Z,86.27
2019-02-10T18:59:39.603Z,74.73
2019-02-10T19:02:27.935Z,75.67
2019-02-10T19:05:06.520Z,74.93
2019-02-10T19:07:59.116Z,64.27
2019-02-10T19:11:03.377Z,69.20
2019-02-10T19:13:48.188Z,68.93
2019-02-10T19:16:32.789Z,75.40
2019-02-10T19:19:20.385Z,61.30
2019-02-10T19:21:59.412Z,66.77
2019-02-10T19:24:51.805Z,68.10
2019-02-10T19:27:43.718Z,68.53
2019-02-10T19:30:31.929Z,76.67
2019-02-10T19:33:13.847Z,75.43
2019-02-10T19:35:57.831Z,67.43
2019-02-10T19:38:44.881Z,65.97
2019-02-10T19:41:34.134Z,74.93
2019-02-10T19:44:16.067Z,78.57
2019-02-10T19:47:01.983Z,69.43
2019-02-10T19:49:54.177Z,68.53
2019-02-10T19:53:01.600Z,71.80
2019-02-10T19:55:56.943Z,77.63
2019-02-10T19:58:38.450Z,76.97
2019-02-10T20:01:18.348Z,86.37
2019-02-10T20:03:59.978Z,84.70
2019-02-10T20:06:36.184Z,89.47
2019-02-10T20:09:25.802Z,83.30
2019-02-10T20:12:24.113Z,71.97
2019-02-10T20:15:16.000Z,62.17
2019-02-10T20:18:05.518Z,64.47
2019-02-10T20:21:01.478Z,63.83
2019-02-10T20:23:50.722Z,50.27
2019-02-10T20:26:40.563Z,59.47
2019-02-10T20:29:25.922Z,43.93
2019-02-10T20:32:27.430Z,43.20
2019-02-10T20:35:19.993Z,31.27
2019-02-10T20:38:08.174Z,25.80
2019-02-10T20:40:57.879Z,33.07
2019-02-10T20:43:57.544Z,31.77
2019-02-10T20:46:50.682Z,20.87
2019-02-10T20:49:43.138Z,28.50
2019-02-10T20:52:21.111Z,30.53
2019-02-10T20:55:19.255Z,24.10
2019-02-10T20:58:07.514Z,26.33
2019-02-10T21:01:06.260Z,33.23
2019-02-10T21:03:50.373Z,45.37
2019-02-10T21:06:48.946Z,34.00
2019-02-10T21:09:44.410Z,39.83
2019-02-10T21:12:37.041Z,42.43
2019-02-10T21:15:30.041Z,41.53
2019-02-10T21:18:18.286Z,40.90
2019-02-10T21:20:55.282Z,45.93
2019-02-10T21:23:47.991Z,64.90
2019-02-10T21:26:43.260Z,46.33
2019-02-10T21:29:31.499Z,36.93
2019-02-10T21:32:10.817Z,40.83
2019-02-10T21:34:55.086Z,38.00
2019-02-10T21:37:47.296Z,42.70
2019-02-10T21:40:42.839Z,49.90
2019-02-10T21:43:35.560Z,53.17
2019-02-10T21:46:28.400Z,52.57
2019-02-10T21:49:05.291Z,42.27
2019-02-10T21:51:36.932Z,48.27
2019-02-10T21:54:07.442Z,56.23
2019-02-10T21:56:37.940Z,52.70
2019-02-10T21:59:08.505Z,51.40
2019-02-10T22:01:39.151Z,46.67
2019-02-10T22:04:09.470Z,43.43
2019-02-10T22:06:39.818Z,47.50
2019-02-10T22:09:10.382Z,44.53
2019-02-10T22:11:41.279Z,43.00
2019-02-10T22:14:11.569Z,43.20
2019-02-10T22:16:42.231Z,40.57
2019-02-10T22:19:12.549Z,39.67
2019-02-10T22:21:43.286Z,41.83
2019-02-10T22:24:13.782Z,39.90
2019-02-10T22:26:44.109Z,40.30
2019-02-10T22:29:15.879Z,50.50
2019-02-10T22:31:46.423Z,48.70
2019-02-10T22:34:16.692Z,52.83
2019-02-10T22:36:47.093Z,45.27
2019-02-10T22:39:17.719Z,40.73
2019-02-10T22:41:47.989Z,39.63
2019-02-10T22:44:18.566Z,39.47
2019-02-10T22:46:49.070Z,39.23
2019-02-10T22:49:19.589Z,44.37
2019-02-10T22:51:50.129Z,48.40
2019-02-10T22:54:20.573Z,48.13
2019-02-10T22:56:51.283Z,47.10
2019-02-10T22:59:21.971Z,44.37
2019-02-10T23:01:52.295Z,46.23
2019-02-10T23:04:22.715Z,43.37
2019-02-10T23:06:53.320Z,48.00
2019-02-10T23:09:24.522Z,46.57
2019-02-10T23:11:54.839Z,47.20
2019-02-10T23:14:25.581Z,47.90
2019-02-10T23:16:55.881Z,44.80
2019-02-10T23:19:26.240Z,43.20
2019-02-10T23:21:56.911Z,45.20
2019-02-10T23:24:27.511Z,45.47
2019-02-10T23:26:57.906Z,46.57
2019-02-10T23:29:29.766Z,46.33
2019-02-10T23:32:00.255Z,42.77
2019-02-10T23:34:30.595Z,40.93
2019-02-10T23:37:01.027Z,42.03
2019-02-10T23:39:31.862Z,46.63
2019-02-10T23:42:02.197Z,47.67
2019-02-10T23:44:32.646Z,44.47
2019-02-10T23:47:03.422Z,45.50
2019-02-10T23:49:33.944Z,45.73
2019-02-10T23:52:04.283Z,37.97
2019-02-10T23:54:34.843Z,40.87
2019-02-10T23:57:05.554Z,37.43
2019-02-10T23:59:36.178Z,37.13
